Terminal Aerodrome Forecast
Issued by NWS Charleston, WV

Current Version | Previous Version | Graphics & Text | Print | Product List | Glossary On
Versions: 1 2 3 4 5 6 7 8 9 10 11 12 13 14 15 16 17 18 19 20 21 22 23 24 25 26 27
000
FTUS41 KRLX 191800 RRB
TAFBKW
TAF
KBKW 191810Z 1918/2018 13008G14KT P6SM VCSH SCT015 BKN035
      TEMPO 1918/1921 BKN015
     FM192300 13008KT P6SM SCT035
     FM200300 14007KT P6SM BKN015
     FM200900 16005KT 6SM BR BKN008
     FM201200 18007KT P6SM BKN012
     FM201500 18010KT P6SM SCT040=

USA.gov is the U.S. government's official web portal to all federal, state and local government web resources and services.